sensor_id;sensor_type;location;lat;lon;timestamp;P1;durP1;ratioP1;P2;durP2;ratioP2
58553;SDS011;48119;53.218;6.576;2023-04-01T00:00:51;5.53;;;3.97;;
58553;SDS011;48119;53.218;6.576;2023-04-01T00:03:18;6.55;;;3.70;;
58553;SDS011;48119;53.218;6.576;2023-04-01T00:05:45;4.55;;;3.55;;
58553;SDS011;48119;53.218;6.576;2023-04-01T00:08:11;5.15;;;4.07;;
58553;SDS011;48119;53.218;6.576;2023-04-01T00:10:37;4.65;;;3.90;;
58553;SDS011;48119;53.218;6.576;2023-04-01T00:13:04;4.90;;;3.67;;
58553;SDS011;48119;53.218;6.576;2023-04-01T00:15:30;6.25;;;3.90;;
58553;SDS011;48119;53.218;6.576;2023-04-01T00:17:56;5.45;;;3.72;;
58553;SDS011;48119;53.218;6.576;2023-04-01T00:20:22;7.78;;;3.92;;
58553;SDS011;48119;53.218;6.576;2023-04-01T00:22:48;5.35;;;3.78;;
58553;SDS011;48119;53.218;6.576;2023-04-01T00:25:14;4.13;;;3.10;;
58553;SDS011;48119;53.218;6.576;2023-04-01T00:27:40;6.53;;;3.67;;
58553;SDS011;48119;53.218;6.576;2023-04-01T00:30:07;4.43;;;3.60;;
58553;SDS011;48119;53.218;6.576;2023-04-01T00:32:33;5.68;;;3.40;;
58553;SDS011;48119;53.218;6.576;2023-04-01T00:35:00;6.18;;;4.18;;
58553;SDS011;48119;53.218;6.576;2023-04-01T00:37:26;5.55;;;4.18;;
58553;SDS011;48119;53.218;6.576;2023-04-01T00:39:52;5.75;;;4.18;;
58553;SDS011;48119;53.218;6.576;2023-04-01T00:42:18;5.47;;;4.13;;
58553;SDS011;48119;53.218;6.576;2023-04-01T00:44:45;5.50;;;4.18;;
58553;SDS011;48119;53.218;6.576;2023-04-01T00:47:18;6.50;;;4.28;;
58553;SDS011;48119;53.218;6.576;2023-04-01T00:49:45;6.78;;;4.20;;
58553;SDS011;48119;53.218;6.576;2023-04-01T00:52:15;6.28;;;4.10;;
58553;SDS011;48119;53.218;6.576;2023-04-01T00:54:44;5.35;;;3.92;;
58553;SDS011;48119;53.218;6.576;2023-04-01T00:57:26;5.40;;;3.45;;
58553;SDS011;48119;53.218;6.576;2023-04-01T00:59:55;6.22;;;5.05;;
58553;SDS011;48119;53.218;6.576;2023-04-01T01:02:21;6.82;;;4.28;;
58553;SDS011;48119;53.218;6.576;2023-04-01T01:04:47;6.53;;;4.78;;
58553;SDS011;48119;53.218;6.576;2023-04-01T01:17:45;8.13;;;5.15;;
58553;SDS011;48119;53.218;6.576;2023-04-01T01:25:37;6.43;;;5.00;;
58553;SDS011;48119;53.218;6.576;2023-04-01T01:36:29;4.95;;;4.30;;
58553;SDS011;48119;53.218;6.576;2023-04-01T01:39:01;6.50;;;4.45;;
58553;SDS011;48119;53.218;6.576;2023-04-01T01:41:30;7.80;;;4.57;;
58553;SDS011;48119;53.218;6.576;2023-04-01T01:43:57;5.55;;;4.47;;
58553;SDS011;48119;53.218;6.576;2023-04-01T01:46:27;7.32;;;4.88;;
58553;SDS011;48119;53.218;6.576;2023-04-01T01:48:55;7.18;;;4.85;;
58553;SDS011;48119;53.218;6.576;2023-04-01T01:51:22;5.15;;;4.40;;
58553;SDS011;48119;53.218;6.576;2023-04-01T01:53:49;6.70;;;4.95;;
58553;SDS011;48119;53.218;6.576;2023-04-01T01:56:15;7.03;;;4.70;;
58553;SDS011;48119;53.218;6.576;2023-04-01T01:58:44;6.75;;;4.95;;
58553;SDS011;48119;53.218;6.576;2023-04-01T02:01:13;5.15;;;4.43;;
58553;SDS011;48119;53.218;6.576;2023-04-01T02:03:42;8.65;;;5.13;;
58553;SDS011;48119;53.218;6.576;2023-04-01T02:06:10;4.68;;;4.20;;
58553;SDS011;48119;53.218;6.576;2023-04-01T02:08:39;6.90;;;5.13;;
58553;SDS011;48119;53.218;6.576;2023-04-01T02:11:13;5.95;;;4.38;;
58553;SDS011;48119;53.218;6.576;2023-04-01T02:16:20;5.50;;;4.32;;
58553;SDS011;48119;53.218;6.576;2023-04-01T02:18:51;5.18;;;4.68;;
58553;SDS011;48119;53.218;6.576;2023-04-01T02:21:20;6.07;;;4.80;;
58553;SDS011;48119;53.218;6.576;2023-04-01T02:23:49;6.38;;;4.75;;
58553;SDS011;48119;53.218;6.576;2023-04-01T02:26:17;4.88;;;4.35;;
58553;SDS011;48119;53.218;6.576;2023-04-01T02:28:45;7.80;;;4.55;;
58553;SDS011;48119;53.218;6.576;2023-04-01T02:31:13;5.78;;;4.38;;
58553;SDS011;48119;53.218;6.576;2023-04-01T02:33:41;5.68;;;4.97;;
58553;SDS011;48119;53.218;6.576;2023-04-01T02:36:10;9.25;;;5.00;;
58553;SDS011;48119;53.218;6.576;2023-04-01T02:38:57;5.38;;;4.47;;
58553;SDS011;48119;53.218;6.576;2023-04-01T02:41:30;5.18;;;4.55;;
58553;SDS011;48119;53.218;6.576;2023-04-01T02:43:57;6.15;;;4.65;;
58553;SDS011;48119;53.218;6.576;2023-04-01T02:49:56;7.50;;;4.57;;
58553;SDS011;48119;53.218;6.576;2023-04-01T02:52:25;5.72;;;4.43;;
58553;SDS011;48119;53.218;6.576;2023-04-01T02:54:52;6.75;;;4.47;;
58553;SDS011;48119;53.218;6.576;2023-04-01T02:57:18;4.65;;;4.00;;
58553;SDS011;48119;53.218;6.576;2023-04-01T02:59:45;6.47;;;5.05;;
58553;SDS011;48119;53.218;6.576;2023-04-01T03:02:10;7.38;;;4.78;;
58553;SDS011;48119;53.218;6.576;2023-04-01T03:04:36;7.30;;;5.90;;
58553;SDS011;48119;53.218;6.576;2023-04-01T03:07:02;8.73;;;6.10;;
58553;SDS011;48119;53.218;6.576;2023-04-01T03:09:28;7.72;;;5.70;;
58553;SDS011;48119;53.218;6.576;2023-04-01T03:11:54;7.63;;;6.57;;
58553;SDS011;48119;53.218;6.576;2023-04-01T03:14:20;10.15;;;7.00;;
58553;SDS011;48119;53.218;6.576;2023-04-01T03:16:46;10.30;;;6.45;;
58553;SDS011;48119;53.218;6.576;2023-04-01T03:19:12;8.13;;;6.95;;
58553;SDS011;48119;53.218;6.576;2023-04-01T03:21:37;8.15;;;7.00;;
58553;SDS011;48119;53.218;6.576;2023-04-01T03:24:03;10.18;;;7.25;;
58553;SDS011;48119;53.218;6.576;2023-04-01T03:26:31;9.82;;;7.50;;
58553;SDS011;48119;53.218;6.576;2023-04-01T03:28:57;10.43;;;7.53;;
58553;SDS011;48119;53.218;6.576;2023-04-01T03:31:23;9.93;;;8.20;;
58553;SDS011;48119;53.218;6.576;2023-04-01T03:33:49;19.23;;;7.50;;
58553;SDS011;48119;53.218;6.576;2023-04-01T03:36:15;8.82;;;7.47;;
58553;SDS011;48119;53.218;6.576;2023-04-01T03:38:42;9.50;;;7.40;;
58553;SDS011;48119;53.218;6.576;2023-04-01T03:41:17;9.75;;;7.47;;
58553;SDS011;48119;53.218;6.576;2023-04-01T03:43:43;8.77;;;7.32;;
58553;SDS011;48119;53.218;6.576;2023-04-01T03:46:10;10.30;;;7.57;;
58553;SDS011;48119;53.218;6.576;2023-04-01T03:48:36;10.02;;;8.02;;
58553;SDS011;48119;53.218;6.576;2023-04-01T03:51:01;12.48;;;8.48;;
58553;SDS011;48119;53.218;6.576;2023-04-01T03:53:32;10.98;;;7.65;;
58553;SDS011;48119;53.218;6.576;2023-04-01T03:55:58;9.82;;;8.15;;
58553;SDS011;48119;53.218;6.576;2023-04-01T03:58:23;10.00;;;7.88;;
58553;SDS011;48119;53.218;6.576;2023-04-01T04:00:49;10.68;;;7.50;;
58553;SDS011;48119;53.218;6.576;2023-04-01T04:03:15;8.93;;;7.22;;
58553;SDS011;48119;53.218;6.576;2023-04-01T04:05:47;9.82;;;8.50;;
58553;SDS011;48119;53.218;6.576;2023-04-01T04:08:14;10.48;;;8.20;;
58553;SDS011;48119;53.218;6.576;2023-04-01T04:10:41;9.85;;;8.05;;
58553;SDS011;48119;53.218;6.576;2023-04-01T04:13:08;10.30;;;7.22;;
58553;SDS011;48119;53.218;6.576;2023-04-01T04:15:34;11.80;;;7.80;;
58553;SDS011;48119;53.218;6.576;2023-04-01T04:18:00;10.25;;;8.30;;
58553;SDS011;48119;53.218;6.576;2023-04-01T04:20:26;8.32;;;6.88;;
58553;SDS011;48119;53.218;6.576;2023-04-01T04:22:51;10.57;;;8.35;;
58553;SDS011;48119;53.218;6.576;2023-04-01T04:25:17;10.10;;;7.57;;
58553;SDS011;48119;53.218;6.576;2023-04-01T04:27:43;10.10;;;7.78;;
58553;SDS011;48119;53.218;6.576;2023-04-01T04:30:09;9.00;;;7.70;;
58553;SDS011;48119;53.218;6.576;2023-04-01T04:32:35;10.85;;;7.38;;
58553;SDS011;48119;53.218;6.576;2023-04-01T04:35:01;9.77;;;7.97;;
58553;SDS011;48119;53.218;6.576;2023-04-01T04:37:27;9.43;;;7.60;;
58553;SDS011;48119;53.218;6.576;2023-04-01T04:39:53;10.10;;;8.25;;
58553;SDS011;48119;53.218;6.576;2023-04-01T04:42:19;9.55;;;8.13;;
58553;SDS011;48119;53.218;6.576;2023-04-01T04:44:44;11.85;;;8.15;;
58553;SDS011;48119;53.218;6.576;2023-04-01T04:47:10;10.55;;;8.23;;
58553;SDS011;48119;53.218;6.576;2023-04-01T04:49:36;10.68;;;8.82;;
58553;SDS011;48119;53.218;6.576;2023-04-01T04:52:02;9.57;;;8.43;;
58553;SDS011;48119;53.218;6.576;2023-04-01T04:54:27;11.18;;;8.93;;
58553;SDS011;48119;53.218;6.576;2023-04-01T04:56:54;9.73;;;8.48;;
58553;SDS011;48119;53.218;6.576;2023-04-01T04:59:20;11.00;;;8.80;;
58553;SDS011;48119;53.218;6.576;2023-04-01T05:01:46;10.30;;;9.13;;
58553;SDS011;48119;53.218;6.576;2023-04-01T05:04:12;11.57;;;9.63;;
58553;SDS011;48119;53.218;6.576;2023-04-01T05:06:42;11.02;;;9.00;;
58553;SDS011;48119;53.218;6.576;2023-04-01T05:09:09;10.95;;;8.75;;
58553;SDS011;48119;53.218;6.576;2023-04-01T05:11:34;10.15;;;8.77;;
58553;SDS011;48119;53.218;6.576;2023-04-01T05:14:00;10.77;;;9.45;;
58553;SDS011;48119;53.218;6.576;2023-04-01T05:16:26;11.95;;;9.38;;
58553;SDS011;48119;53.218;6.576;2023-04-01T05:18:52;10.43;;;8.45;;
58553;SDS011;48119;53.218;6.576;2023-04-01T05:21:17;10.80;;;8.93;;
58553;SDS011;48119;53.218;6.576;2023-04-01T05:23:43;11.68;;;8.68;;
58553;SDS011;48119;53.218;6.576;2023-04-01T05:26:11;12.63;;;9.07;;
58553;SDS011;48119;53.218;6.576;2023-04-01T05:28:39;10.32;;;8.82;;
58553;SDS011;48119;53.218;6.576;2023-04-01T05:31:05;12.50;;;9.90;;
58553;SDS011;48119;53.218;6.576;2023-04-01T05:33:32;9.15;;;8.15;;
58553;SDS011;48119;53.218;6.576;2023-04-01T05:38:39;13.55;;;9.32;;
58553;SDS011;48119;53.218;6.576;2023-04-01T05:41:07;11.90;;;9.52;;
58553;SDS011;48119;53.218;6.576;2023-04-01T05:43:37;9.27;;;8.27;;
58553;SDS011;48119;53.218;6.576;2023-04-01T05:46:03;11.70;;;8.77;;
58553;SDS011;48119;53.218;6.576;2023-04-01T05:48:29;9.50;;;7.80;;
58553;SDS011;48119;53.218;6.576;2023-04-01T05:50:55;10.90;;;8.60;;
58553;SDS011;48119;53.218;6.576;2023-04-01T05:53:21;10.48;;;8.65;;
58553;SDS011;48119;53.218;6.576;2023-04-01T05:55:47;10.77;;;8.48;;
58553;SDS011;48119;53.218;6.576;2023-04-01T05:58:13;9.57;;;7.85;;
58553;SDS011;48119;53.218;6.576;2023-04-01T06:00:39;9.90;;;8.05;;
58553;SDS011;48119;53.218;6.576;2023-04-01T06:03:05;8.63;;;7.20;;
58553;SDS011;48119;53.218;6.576;2023-04-01T06:05:36;8.65;;;7.75;;
58553;SDS011;48119;53.218;6.576;2023-04-01T06:08:11;9.82;;;7.97;;
58553;SDS011;48119;53.218;6.576;2023-04-01T06:20:11;12.35;;;9.70;;
58553;SDS011;48119;53.218;6.576;2023-04-01T06:25:11;11.50;;;9.73;;
58553;SDS011;48119;53.218;6.576;2023-04-01T06:28:00;12.73;;;9.40;;
58553;SDS011;48119;53.218;6.576;2023-04-01T06:30:43;13.68;;;9.52;;
58553;SDS011;48119;53.218;6.576;2023-04-01T06:46:58;13.23;;;10.98;;
58553;SDS011;48119;53.218;6.576;2023-04-01T06:49:49;11.50;;;9.90;;
58553;SDS011;48119;53.218;6.576;2023-04-01T06:57:42;14.30;;;10.82;;
58553;SDS011;48119;53.218;6.576;2023-04-01T07:00:22;15.23;;;11.07;;
58553;SDS011;48119;53.218;6.576;2023-04-01T07:05:56;16.15;;;11.85;;
58553;SDS011;48119;53.218;6.576;2023-04-01T07:08:27;15.35;;;12.02;;
58553;SDS011;48119;53.218;6.576;2023-04-01T07:11:03;16.00;;;12.70;;
58553;SDS011;48119;53.218;6.576;2023-04-01T07:13:32;15.13;;;11.18;;
58553;SDS011;48119;53.218;6.576;2023-04-01T07:16:19;15.80;;;12.05;;
58553;SDS011;48119;53.218;6.576;2023-04-01T07:19:14;14.65;;;11.48;;
58553;SDS011;48119;53.218;6.576;2023-04-01T07:22:03;15.57;;;11.68;;
58553;SDS011;48119;53.218;6.576;2023-04-01T07:24:36;16.00;;;12.23;;
58553;SDS011;48119;53.218;6.576;2023-04-01T07:27:05;16.70;;;12.32;;
58553;SDS011;48119;53.218;6.576;2023-04-01T07:29:34;16.00;;;12.27;;
58553;SDS011;48119;53.218;6.576;2023-04-01T07:32:21;16.75;;;13.27;;
58553;SDS011;48119;53.218;6.576;2023-04-01T07:51:21;15.48;;;11.52;;
58553;SDS011;48119;53.218;6.576;2023-04-01T07:56:31;14.75;;;11.50;;
58553;SDS011;48119;53.218;6.576;2023-04-01T08:01:34;17.75;;;12.20;;
58553;SDS011;48119;53.218;6.576;2023-04-01T08:07:10;14.02;;;11.20;;
58553;SDS011;48119;53.218;6.576;2023-04-01T08:15:27;14.80;;;11.10;;
58553;SDS011;48119;53.218;6.576;2023-04-01T08:21:25;14.40;;;10.75;;
58553;SDS011;48119;53.218;6.576;2023-04-01T08:23:56;13.57;;;9.68;;
58553;SDS011;48119;53.218;6.576;2023-04-01T08:31:51;11.15;;;9.00;;
58553;SDS011;48119;53.218;6.576;2023-04-01T08:34:20;11.18;;;8.85;;
58553;SDS011;48119;53.218;6.576;2023-04-01T08:36:58;13.10;;;10.13;;
58553;SDS011;48119;53.218;6.576;2023-04-01T08:39:32;11.60;;;9.70;;
58553;SDS011;48119;53.218;6.576;2023-04-01T08:42:14;12.02;;;9.88;;
58553;SDS011;48119;53.218;6.576;2023-04-01T08:47:38;12.38;;;9.38;;
58553;SDS011;48119;53.218;6.576;2023-04-01T08:53:33;13.43;;;10.02;;
58553;SDS011;48119;53.218;6.576;2023-04-01T09:15:54;13.43;;;4.30;;
58553;SDS011;48119;53.218;6.576;2023-04-01T09:27:14;4.88;;;2.38;;
58553;SDS011;48119;53.218;6.576;2023-04-01T09:30:10;2.92;;;2.30;;
58553;SDS011;48119;53.218;6.576;2023-04-01T09:41:07;2.83;;;2.00;;
58553;SDS011;48119;53.218;6.576;2023-04-01T09:51:52;3.40;;;2.10;;
58553;SDS011;48119;53.218;6.576;2023-04-01T10:00:10;2.45;;;2.00;;
58553;SDS011;48119;53.218;6.576;2023-04-01T10:33:38;2.97;;;1.42;;
58553;SDS011;48119;53.218;6.576;2023-04-01T10:36:41;3.45;;;1.77;;
58553;SDS011;48119;53.218;6.576;2023-04-01T10:55:53;3.60;;;1.20;;
58553;SDS011;48119;53.218;6.576;2023-04-01T11:18:58;3.80;;;1.50;;
58553;SDS011;48119;53.218;6.576;2023-04-01T11:33:16;2.72;;;1.58;;
58553;SDS011;48119;53.218;6.576;2023-04-01T11:35:55;1.38;;;1.17;;
58553;SDS011;48119;53.218;6.576;2023-04-01T11:41:49;1.95;;;1.25;;
58553;SDS011;48119;53.218;6.576;2023-04-01T11:44:27;2.15;;;1.42;;
58553;SDS011;48119;53.218;6.576;2023-04-01T12:06:59;5.43;;;1.20;;
58553;SDS011;48119;53.218;6.576;2023-04-01T12:18:13;4.38;;;1.20;;
58553;SDS011;48119;53.218;6.576;2023-04-01T12:20:50;1.73;;;1.35;;
58553;SDS011;48119;53.218;6.576;2023-04-01T12:32:05;2.33;;;1.40;;
58553;SDS011;48119;53.218;6.576;2023-04-01T12:49:06;2.10;;;1.35;;
58553;SDS011;48119;53.218;6.576;2023-04-01T13:05:23;2.63;;;1.65;;
58553;SDS011;48119;53.218;6.576;2023-04-01T13:16:22;1.90;;;1.23;;
58553;SDS011;48119;53.218;6.576;2023-04-01T13:24:04;2.85;;;1.20;;
58553;SDS011;48119;53.218;6.576;2023-04-01T13:29:33;1.70;;;1.30;;
58553;SDS011;48119;53.218;6.576;2023-04-01T13:32:56;1.88;;;1.40;;
58553;SDS011;48119;53.218;6.576;2023-04-01T13:40:39;1.65;;;1.20;;
58553;SDS011;48119;53.218;6.576;2023-04-01T13:43:39;1.35;;;1.10;;
58553;SDS011;48119;53.218;6.576;2023-04-01T13:46:16;4.20;;;1.35;;
58553;SDS011;48119;53.218;6.576;2023-04-01T13:59:55;0.88;;;0.80;;
58553;SDS011;48119;53.218;6.576;2023-04-01T14:17:16;2.70;;;0.80;;
58553;SDS011;48119;53.218;6.576;2023-04-01T14:20:06;2.80;;;1.13;;
58553;SDS011;48119;53.218;6.576;2023-04-01T14:45:17;1.67;;;0.73;;
58553;SDS011;48119;53.218;6.576;2023-04-01T14:48:23;1.83;;;0.82;;
58553;SDS011;48119;53.218;6.576;2023-04-01T14:51:13;4.45;;;1.00;;
58553;SDS011;48119;53.218;6.576;2023-04-01T14:54:44;1.45;;;1.13;;
58553;SDS011;48119;53.218;6.576;2023-04-01T14:57:05;2.55;;;1.10;;
58553;SDS011;48119;53.218;6.576;2023-04-01T14:59:38;3.20;;;1.25;;
58553;SDS011;48119;53.218;6.576;2023-04-01T15:08:33;2.67;;;1.60;;
58553;SDS011;48119;53.218;6.576;2023-04-01T15:13:45;2.35;;;1.48;;
58553;SDS011;48119;53.218;6.576;2023-04-01T15:16:44;2.92;;;1.40;;
58553;SDS011;48119;53.218;6.576;2023-04-01T15:19:58;2.45;;;1.45;;
58553;SDS011;48119;53.218;6.576;2023-04-01T15:30:37;2.67;;;1.85;;
58553;SDS011;48119;53.218;6.576;2023-04-01T15:36:40;5.90;;;2.35;;
58553;SDS011;48119;53.218;6.576;2023-04-01T15:49:56;4.22;;;2.00;;
58553;SDS011;48119;53.218;6.576;2023-04-01T15:55:16;4.13;;;2.72;;
58553;SDS011;48119;53.218;6.576;2023-04-01T16:00:49;6.90;;;3.55;;
58553;SDS011;48119;53.218;6.576;2023-04-01T16:03:33;5.03;;;2.83;;
58553;SDS011;48119;53.218;6.576;2023-04-01T16:27:46;6.53;;;4.18;;
58553;SDS011;48119;53.218;6.576;2023-04-01T16:30:33;6.78;;;4.00;;
58553;SDS011;48119;53.218;6.576;2023-04-01T16:33:14;6.43;;;3.35;;
58553;SDS011;48119;53.218;6.576;2023-04-01T16:36:00;6.07;;;3.92;;
58553;SDS011;48119;53.218;6.576;2023-04-01T16:38:54;4.95;;;3.30;;
58553;SDS011;48119;53.218;6.576;2023-04-01T16:41:52;6.40;;;2.83;;
58553;SDS011;48119;53.218;6.576;2023-04-01T16:44:24;5.45;;;3.35;;
58553;SDS011;48119;53.218;6.576;2023-04-01T16:46:53;8.88;;;3.83;;
58553;SDS011;48119;53.218;6.576;2023-04-01T17:02:38;5.03;;;3.05;;
58553;SDS011;48119;53.218;6.576;2023-04-01T17:05:39;4.68;;;2.28;;
58553;SDS011;48119;53.218;6.576;2023-04-01T17:24:58;11.98;;;3.95;;
58553;SDS011;48119;53.218;6.576;2023-04-01T17:30:39;8.23;;;3.92;;
58553;SDS011;48119;53.218;6.576;2023-04-01T17:55:15;7.63;;;4.18;;
58553;SDS011;48119;53.218;6.576;2023-04-01T17:58:12;7.65;;;4.05;;
58553;SDS011;48119;53.218;6.576;2023-04-01T18:08:58;7.25;;;4.00;;
58553;SDS011;48119;53.218;6.576;2023-04-01T18:17:17;6.72;;;3.35;;
58553;SDS011;48119;53.218;6.576;2023-04-01T18:22:29;6.63;;;4.35;;
58553;SDS011;48119;53.218;6.576;2023-04-01T18:30:57;11.13;;;4.32;;
58553;SDS011;48119;53.218;6.576;2023-04-01T18:39:30;15.55;;;5.22;;
58553;SDS011;48119;53.218;6.576;2023-04-01T18:42:14;10.70;;;4.70;;
58553;SDS011;48119;53.218;6.576;2023-04-01T18:47:44;8.40;;;3.50;;
58553;SDS011;48119;53.218;6.576;2023-04-01T18:50:30;8.35;;;4.00;;
58553;SDS011;48119;53.218;6.576;2023-04-01T18:53:09;6.10;;;4.18;;
58553;SDS011;48119;53.218;6.576;2023-04-01T18:56:01;10.13;;;4.03;;
58553;SDS011;48119;53.218;6.576;2023-04-01T18:58:36;7.80;;;4.05;;
58553;SDS011;48119;53.218;6.576;2023-04-01T19:01:23;7.03;;;3.92;;
58553;SDS011;48119;53.218;6.576;2023-04-01T19:06:50;5.97;;;4.38;;
58553;SDS011;48119;53.218;6.576;2023-04-01T19:14:51;9.23;;;4.53;;
58553;SDS011;48119;53.218;6.576;2023-04-01T19:17:32;7.03;;;3.50;;
58553;SDS011;48119;53.218;6.576;2023-04-01T19:25:59;10.52;;;4.22;;
58553;SDS011;48119;53.218;6.576;2023-04-01T19:31:47;9.40;;;4.43;;
58553;SDS011;48119;53.218;6.576;2023-04-01T19:40:07;10.63;;;4.22;;
58553;SDS011;48119;53.218;6.576;2023-04-01T19:46:06;6.10;;;3.83;;
58553;SDS011;48119;53.218;6.576;2023-04-01T19:49:14;6.75;;;3.25;;
58553;SDS011;48119;53.218;6.576;2023-04-01T19:54:28;6.30;;;3.65;;
58553;SDS011;48119;53.218;6.576;2023-04-01T19:57:12;6.70;;;3.90;;
58553;SDS011;48119;53.218;6.576;2023-04-01T20:07:53;6.85;;;3.30;;
58553;SDS011;48119;53.218;6.576;2023-04-01T20:15:41;9.27;;;4.18;;
58553;SDS011;48119;53.218;6.576;2023-04-01T20:20:54;13.82;;;5.22;;
58553;SDS011;48119;53.218;6.576;2023-04-01T20:23:49;9.70;;;4.40;;
58553;SDS011;48119;53.218;6.576;2023-04-01T20:26:21;8.60;;;4.20;;
58553;SDS011;48119;53.218;6.576;2023-04-01T20:32:29;7.75;;;3.45;;
58553;SDS011;48119;53.218;6.576;2023-04-01T20:37:48;7.10;;;2.85;;
58553;SDS011;48119;53.218;6.576;2023-04-01T20:46:11;8.25;;;4.22;;
58553;SDS011;48119;53.218;6.576;2023-04-01T20:51:27;6.82;;;3.83;;
58553;SDS011;48119;53.218;6.576;2023-04-01T21:10:43;7.05;;;3.90;;
58553;SDS011;48119;53.218;6.576;2023-04-01T21:13:31;6.97;;;3.65;;
58553;SDS011;48119;53.218;6.576;2023-04-01T21:18:58;7.47;;;4.40;;
58553;SDS011;48119;53.218;6.576;2023-04-01T21:30:11;7.70;;;3.75;;
58553;SDS011;48119;53.218;6.576;2023-04-01T21:36:01;8.45;;;3.95;;
58553;SDS011;48119;53.218;6.576;2023-04-01T22:07:00;8.73;;;4.45;;
58553;SDS011;48119;53.218;6.576;2023-04-01T22:12:35;9.07;;;4.10;;
58553;SDS011;48119;53.218;6.576;2023-04-01T22:15:19;6.45;;;3.08;;
58553;SDS011;48119;53.218;6.576;2023-04-01T22:31:11;12.20;;;6.13;;
58553;SDS011;48119;53.218;6.576;2023-04-01T22:33:54;11.40;;;4.50;;
58553;SDS011;48119;53.218;6.576;2023-04-01T22:56:07;7.93;;;3.40;;
58553;SDS011;48119;53.218;6.576;2023-04-01T22:58:46;8.98;;;2.97;;
58553;SDS011;48119;53.218;6.576;2023-04-01T23:01:34;5.10;;;2.80;;
58553;SDS011;48119;53.218;6.576;2023-04-01T23:04:05;12.70;;;3.03;;
58553;SDS011;48119;53.218;6.576;2023-04-01T23:06:42;4.45;;;2.45;;
58553;SDS011;48119;53.218;6.576;2023-04-01T23:09:34;5.90;;;2.63;;
58553;SDS011;48119;53.218;6.576;2023-04-01T23:12:04;5.47;;;2.92;;
58553;SDS011;48119;53.218;6.576;2023-04-01T23:14:41;8.25;;;2.67;;
58553;SDS011;48119;53.218;6.576;2023-04-01T23:22:54;4.78;;;2.50;;
58553;SDS011;48119;53.218;6.576;2023-04-01T23:25:55;7.47;;;2.80;;
58553;SDS011;48119;53.218;6.576;2023-04-01T23:36:21;10.55;;;3.47;;
58553;SDS011;48119;53.218;6.576;2023-04-01T23:38:47;10.15;;;3.03;;
58553;SDS011;48119;53.218;6.576;2023-04-01T23:41:19;9.57;;;3.95;;
58553;SDS011;48119;53.218;6.576;2023-04-01T23:44:01;10.07;;;3.80;;
58553;SDS011;48119;53.218;6.576;2023-04-01T23:46:30;6.15;;;3.05;;
58553;SDS011;48119;53.218;6.576;2023-04-01T23:48:57;5.43;;;2.92;;
58553;SDS011;48119;53.218;6.576;2023-04-01T23:51:28;7.60;;;3.17;;
58553;SDS011;48119;53.218;6.576;2023-04-01T23:54:11;8.40;;;2.97;;
58553;SDS011;48119;53.218;6.576;2023-04-01T23:56:43;6.20;;;2.50;;
58553;SDS011;48119;53.218;6.576;2023-04-01T23:59:18;9.40;;;2.67;;
